Time;durP1;ratioP1;P1;durP2;ratioP2;P2;SDS_P1;SDS_P2;PMS_P1;PMS_P2;Temp;Humidity;BMP_temperature;BMP_pressure;BME280_temperature;BME280_humidity;BME280_pressure;Samples;Min_cycle;Max_cycle;Signal;HPM_P1;HPM_P2
2022/09/11 00:01:08;;;;;;;3.20;1.27;;;22.40;65.10;;;;;;5046379;28;20068;-62
2022/09/11 00:03:33;;;;;;;2.15;1.25;;;22.40;65.00;;;;;;5045289;28;20017;-62
2022/09/11 00:06:07;;;;;;;3.33;1.30;;;22.30;65.00;;;;;;5046619;28;20024;-61
2022/09/11 00:08:33;;;;;;;3.53;1.20;;;22.40;65.00;;;;;;5044907;28;20032;-61
2022/09/11 00:11:03;;;;;;;5.40;1.60;;;22.30;65.00;;;;;;5046101;28;20028;-61
2022/09/11 00:13:30;;;;;;;3.70;1.27;;;22.40;65.00;;;;;;5044449;28;20036;-61
2022/09/11 00:15:55;;;;;;;3.42;1.30;;;22.40;65.00;;;;;;5044686;28;20695;-61
2022/09/11 00:18:21;;;;;;;2.85;1.40;;;22.40;65.00;;;;;;5043724;28;20037;-61
2022/09/11 00:20:48;;;;;;;2.17;1.30;;;22.40;64.90;;;;;;5047365;28;20033;-61
2022/09/11 00:23:16;;;;;;;4.13;1.40;;;22.30;64.90;;;;;;5047076;28;20041;-62
2022/09/11 00:25:42;;;;;;;5.55;1.50;;;22.30;64.90;;;;;;5042454;28;20024;-62
2022/09/11 00:28:18;;;;;;;4.13;1.30;;;22.30;64.80;;;;;;5047812;28;20036;-61
2022/09/11 00:30:44;;;;;;;4.22;1.20;;;22.30;64.80;;;;;;5044271;28;20120;-61
2022/09/11 00:33:14;;;;;;;3.35;1.40;;;22.30;64.80;;;;;;5044049;28;20126;-61
2022/09/11 00:35:39;;;;;;;3.47;1.27;;;22.30;64.80;;;;;;5045927;28;20061;-61
2022/09/11 00:38:07;;;;;;;2.75;1.10;;;22.30;64.90;;;;;;5047569;28;20106;-61
2022/09/11 00:40:43;;;;;;;2.50;1.17;;;22.30;65.00;;;;;;5041644;28;20052;-61
2022/09/11 00:43:09;;;;;;;2.95;1.33;;;22.30;65.00;;;;;;5045143;28;20036;-61
2022/09/11 00:45:34;;;;;;;3.00;1.30;;;22.30;64.80;;;;;;5038692;28;20020;-61
2022/09/11 00:48:00;;;;;;;4.00;1.25;;;22.30;64.90;;;;;;5044382;28;20033;-61
2022/09/11 00:50:27;;;;;;;2.65;1.35;;;22.20;64.80;;;;;;5045170;28;20722;-61
2022/09/11 00:52:59;;;;;;;3.15;1.20;;;22.30;64.90;;;;;;5027444;28;20026;-61
2022/09/11 00:55:26;;;;;;;3.35;1.50;;;22.30;64.90;;;;;;5046522;28;20025;-61
2022/09/11 00:57:56;;;;;;;4.38;1.40;;;22.30;64.90;;;;;;5044789;28;20037;-61
2022/09/11 01:00:22;;;;;;;2.25;1.20;;;22.30;64.90;;;;;;5027648;28;20374;-62
2022/09/11 01:02:48;;;;;;;4.05;1.20;;;22.30;65.00;;;;;;5045378;28;20040;-61
2022/09/11 01:05:15;;;;;;;3.92;1.20;;;22.20;64.80;;;;;;5043528;28;20032;-62
2022/09/11 01:07:41;;;;;;;2.50;1.10;;;22.20;64.80;;;;;;5013678;28;20065;-61
2022/09/11 01:10:07;;;;;;;2.92;1.20;;;22.20;64.90;;;;;;5028935;28;20056;-62
2022/09/11 01:12:41;;;;;;;3.70;1.30;;;22.20;64.80;;;;;;5027152;28;20539;-61
2022/09/11 01:15:07;;;;;;;3.40;1.20;;;22.20;64.80;;;;;;5023762;28;20550;-61
2022/09/11 01:17:51;;;;;;;3.05;1.38;;;22.20;64.80;;;;;;5046334;28;20517;-61
2022/09/11 01:20:29;;;;;;;3.28;1.30;;;22.20;64.90;;;;;;5027327;28;20120;-61
2022/09/11 01:23:18;;;;;;;2.05;1.08;;;22.20;64.90;;;;;;5046212;28;20036;-61
2022/09/11 01:25:50;;;;;;;2.75;1.30;;;22.20;64.90;;;;;;5040529;28;20685;-62
2022/09/11 01:28:43;;;;;;;4.63;1.10;;;22.20;64.90;;;;;;5041335;28;20436;-61
2022/09/11 01:31:10;;;;;;;4.38;1.20;;;22.20;64.90;;;;;;5051938;28;20033;-62
2022/09/11 01:33:40;;;;;;;2.25;1.13;;;22.20;64.90;;;;;;5006398;28;20037;-61
2022/09/11 01:36:19;;;;;;;3.25;1.20;;;22.20;64.90;;;;;;5025196;28;20056;-61
2022/09/11 01:38:46;;;;;;;2.58;1.30;;;22.20;64.90;;;;;;5044892;28;20024;-62
2022/09/11 01:41:16;;;;;;;3.65;1.45;;;22.20;64.90;;;;;;5046259;28;20029;-61
2022/09/11 01:43:50;;;;;;;4.95;1.50;;;22.20;64.90;;;;;;5026150;28;20070;-61
2022/09/11 01:46:21;;;;;;;3.38;1.40;;;22.10;64.80;;;;;;5009283;28;20029;-61
2022/09/11 01:48:48;;;;;;;3.42;1.30;;;22.10;64.80;;;;;;5025450;28;20025;-62
2022/09/11 01:51:20;;;;;;;3.55;1.38;;;22.10;64.90;;;;;;5025164;28;20025;-61
2022/09/11 01:53:46;;;;;;;5.10;1.40;;;22.10;64.80;;;;;;5026669;28;20041;-61
2022/09/11 01:56:23;;;;;;;2.53;1.35;;;22.10;64.80;;;;;;5027815;28;20057;-62
2022/09/11 01:58:49;;;;;;;3.60;1.45;;;22.10;64.90;;;;;;5007822;28;20114;-61
2022/09/11 02:01:23;;;;;;;2.53;1.20;;;22.10;64.80;;;;;;5020697;28;20056;-61
2022/09/11 02:03:53;;;;;;;2.90;1.40;;;22.10;64.90;;;;;;5023150;28;20025;-62
2022/09/11 02:06:26;;;;;;;2.22;1.20;;;22.10;64.80;;;;;;5026415;28;20044;-61
2022/09/11 02:09:02;;;;;;;4.55;1.33;;;22.10;64.80;;;;;;5025868;28;20052;-61
2022/09/11 02:11:32;;;;;;;1.88;1.08;;;22.10;64.80;;;;;;5011341;28;20044;-62
2022/09/11 02:14:20;;;;;;;3.13;1.23;;;22.10;64.80;;;;;;5029612;28;20040;-61
2022/09/11 02:16:52;;;;;;;2.92;1.30;;;22.10;64.80;;;;;;5031405;28;20024;-61
2022/09/11 02:19:20;;;;;;;3.90;1.30;;;22.10;64.80;;;;;;5031230;28;20072;-62
2022/09/11 02:21:46;;;;;;;5.15;1.48;;;22.10;64.90;;;;;;5031865;28;20409;-61
2022/09/11 02:24:14;;;;;;;3.33;1.35;;;22.10;64.80;;;;;;5049126;28;20032;-61
2022/09/11 02:26:46;;;;;;;3.10;1.40;;;22.00;64.90;;;;;;5024886;28;20075;-62
2022/09/11 02:29:12;;;;;;;3.28;1.30;;;22.10;64.80;;;;;;5026981;28;20100;-62
2022/09/11 02:31:37;;;;;;;2.90;1.30;;;22.10;64.80;;;;;;5047571;28;20041;-62
2022/09/11 02:34:04;;;;;;;1.98;1.10;;;22.00;64.80;;;;;;5048316;28;20036;-62
2022/09/11 02:36:59;;;;;;;2.65;1.20;;;22.00;64.80;;;;;;5048169;28;20029;-61
2022/09/11 02:39:51;;;;;;;3.83;1.27;;;22.00;64.80;;;;;;5031679;28;20088;-62
2022/09/11 02:42:38;;;;;;;2.38;1.08;;;22.00;64.80;;;;;;5027662;28;20033;-62
2022/09/11 02:45:04;;;;;;;2.22;1.15;;;22.00;64.80;;;;;;5033341;28;20013;-61
2022/09/11 02:47:57;;;;;;;2.58;1.02;;;22.00;64.90;;;;;;5044805;28;20142;-62
2022/09/11 02:50:28;;;;;;;3.17;1.30;;;22.00;64.80;;;;;;5046801;28;20051;-62
2022/09/11 02:53:13;;;;;;;1.63;1.00;;;22.00;64.90;;;;;;5028620;28;20096;-61
2022/09/11 02:56:04;;;;;;;3.03;1.10;;;22.00;64.90;;;;;;5032565;28;20459;-61
2022/09/11 02:58:36;;;;;;;2.28;1.20;;;22.00;64.90;;;;;;5021727;28;20044;-62
2022/09/11 03:01:02;;;;;;;2.65;1.30;;;22.00;64.90;;;;;;5031954;28;20024;-61
2022/09/11 03:03:28;;;;;;;2.72;1.40;;;22.00;64.90;;;;;;5029412;28;20029;-62
2022/09/11 03:05:54;;;;;;;2.28;1.13;;;22.00;64.90;;;;;;5030398;28;20021;-61
2022/09/11 03:08:19;;;;;;;2.33;0.90;;;22.00;64.90;;;;;;5009598;28;20033;-61
2022/09/11 03:10:48;;;;;;;3.00;1.20;;;22.00;64.90;;;;;;5046207;28;20107;-61
2022/09/11 03:13:14;;;;;;;2.63;1.10;;;22.00;64.90;;;;;;5048647;28;20059;-62
2022/09/11 03:15:43;;;;;;;2.92;1.20;;;22.00;64.90;;;;;;5045988;28;20017;-61
2022/09/11 03:18:10;;;;;;;2.85;1.10;;;22.00;64.90;;;;;;5024875;28;20110;-61
2022/09/11 03:20:36;;;;;;;2.78;1.23;;;22.00;64.90;;;;;;5047477;28;20045;-61
2022/09/11 03:23:09;;;;;;;3.45;1.20;;;21.90;64.90;;;;;;5045253;28;20051;-62
2022/09/11 03:25:35;;;;;;;3.42;1.38;;;21.90;64.80;;;;;;5046842;28;20104;-61
2022/09/11 03:28:02;;;;;;;2.40;1.48;;;22.00;64.90;;;;;;5047325;28;20131;-61
2022/09/11 03:30:28;;;;;;;2.08;1.10;;;22.00;64.90;;;;;;5046704;28;20041;-62
2022/09/11 03:32:54;;;;;;;2.05;1.23;;;21.90;64.90;;;;;;5047417;28;20454;-61
2022/09/11 03:35:20;;;;;;;1.95;1.02;;;21.90;65.00;;;;;;5045622;28;20405;-61
2022/09/11 03:37:46;;;;;;;1.42;0.98;;;21.90;64.90;;;;;;5046443;28;20033;-62
2022/09/11 03:40:12;;;;;;;2.25;1.30;;;21.90;64.90;;;;;;5046790;28;20021;-61
2022/09/11 03:42:37;;;;;;;1.83;1.10;;;21.90;64.90;;;;;;5047578;28;20036;-61
2022/09/11 03:45:03;;;;;;;2.05;1.17;;;21.90;64.90;;;;;;5045154;28;20031;-61
2022/09/11 03:47:29;;;;;;;2.47;1.30;;;21.90;65.00;;;;;;5045364;28;20117;-61
2022/09/11 03:49:54;;;;;;;1.52;1.08;;;21.90;64.90;;;;;;5043630;28;20029;-61
2022/09/11 03:52:21;;;;;;;3.03;1.27;;;21.90;64.90;;;;;;5045234;28;20037;-61
2022/09/11 03:54:48;;;;;;;2.03;1.20;;;21.90;64.90;;;;;;5044996;28;20029;-61
2022/09/11 03:57:14;;;;;;;2.53;1.27;;;21.90;64.90;;;;;;5047446;28;20408;-62
2022/09/11 03:59:39;;;;;;;2.38;1.10;;;21.90;64.90;;;;;;5047702;28;20025;-61
2022/09/11 04:02:05;;;;;;;2.88;1.30;;;21.90;65.00;;;;;;5046926;28;20079;-62
2022/09/11 04:04:31;;;;;;;1.30;1.13;;;21.90;65.00;;;;;;5047029;28;20755;-61
2022/09/11 04:06:57;;;;;;;2.50;1.20;;;21.90;64.90;;;;;;5043480;28;20032;-61
2022/09/11 04:09:23;;;;;;;2.78;1.10;;;21.90;64.90;;;;;;5044491;28;20496;-61
2022/09/11 04:11:49;;;;;;;2.42;1.20;;;21.90;64.90;;;;;;5044072;28;20037;-61
2022/09/11 04:14:14;;;;;;;1.80;1.10;;;21.90;65.00;;;;;;5043995;28;20033;-61
2022/09/11 04:16:40;;;;;;;2.03;1.02;;;21.90;64.90;;;;;;5045920;28;20506;-61
2022/09/11 04:19:06;;;;;;;2.58;1.30;;;21.90;65.00;;;;;;5046132;28;20682;-61
2022/09/11 04:21:33;;;;;;;2.45;1.10;;;21.90;64.90;;;;;;5045363;28;20044;-62
2022/09/11 04:23:59;;;;;;;2.00;1.23;;;21.90;65.00;;;;;;5043276;28;20033;-61
2022/09/11 04:26:26;;;;;;;2.50;1.10;;;21.90;65.00;;;;;;5042682;28;20107;-61
2022/09/11 04:28:52;;;;;;;2.20;1.10;;;21.90;65.00;;;;;;5045624;28;20071;-61
2022/09/11 04:31:18;;;;;;;3.40;1.23;;;21.90;65.00;;;;;;5047789;28;20036;-61
2022/09/11 04:33:44;;;;;;;3.03;1.20;;;21.90;65.00;;;;;;5041063;28;20079;-61
2022/09/11 04:36:11;;;;;;;2.65;1.30;;;21.90;65.00;;;;;;5044776;28;20013;-61
2022/09/11 04:38:40;;;;;;;1.40;1.00;;;21.80;65.00;;;;;;5045738;28;20522;-61
2022/09/11 04:41:06;;;;;;;1.65;1.10;;;21.80;65.00;;;;;;5044360;28;20563;-61
2022/09/11 04:43:33;;;;;;;2.95;1.40;;;21.80;64.90;;;;;;5047829;28;20025;-62
2022/09/11 04:46:02;;;;;;;2.42;1.10;;;21.90;65.00;;;;;;5023013;28;20083;-61
2022/09/11 04:48:28;;;;;;;2.63;1.20;;;21.80;65.00;;;;;;5044859;28;20064;-61
2022/09/11 04:51:04;;;;;;;2.35;1.00;;;21.80;65.00;;;;;;5042977;28;20091;-61
2022/09/11 04:53:30;;;;;;;2.28;1.13;;;21.80;65.00;;;;;;5043950;28;20064;-61
2022/09/11 04:56:07;;;;;;;2.00;1.10;;;21.80;65.00;;;;;;5043407;28;20025;-61
2022/09/11 04:58:33;;;;;;;1.77;1.10;;;21.80;65.00;;;;;;5043787;28;20489;-61
2022/09/11 05:00:59;;;;;;;1.73;1.00;;;21.80;65.00;;;;;;5025974;28;20024;-62
2022/09/11 05:03:24;;;;;;;1.48;1.10;;;21.80;65.00;;;;;;5043057;28;20087;-61
2022/09/11 05:05:50;;;;;;;2.95;1.13;;;21.80;65.00;;;;;;5045058;28;20171;-61
2022/09/11 05:08:19;;;;;;;2.38;1.00;;;21.80;65.00;;;;;;5042521;28;20512;-61
2022/09/11 05:10:45;;;;;;;3.03;1.40;;;21.80;65.00;;;;;;5044674;28;20025;-61
2022/09/11 05:13:12;;;;;;;3.17;1.10;;;21.80;65.00;;;;;;5044253;28;20041;-61
2022/09/11 05:15:38;;;;;;;1.77;1.17;;;21.80;65.00;;;;;;5043873;28;20033;-61
2022/09/11 05:18:04;;;;;;;3.40;1.30;;;21.80;65.00;;;;;;5045197;28;20027;-61
2022/09/11 05:20:29;;;;;;;4.20;1.38;;;21.80;65.00;;;;;;5045281;28;20045;-62
2022/09/11 05:22:57;;;;;;;1.90;1.00;;;21.70;64.90;;;;;;5045499;28;20028;-61
2022/09/11 05:25:24;;;;;;;2.85;1.20;;;21.70;64.90;;;;;;5043663;28;20063;-61
2022/09/11 05:27:50;;;;;;;1.70;1.15;;;21.80;65.00;;;;;;5046127;28;20120;-61
2022/09/11 05:30:15;;;;;;;1.50;1.10;;;21.70;65.00;;;;;;5045434;28;20746;-61
2022/09/11 05:32:41;;;;;;;2.38;1.10;;;21.70;64.90;;;;;;5044736;28;20021;-61
2022/09/11 05:35:07;;;;;;;2.15;1.30;;;21.70;65.00;;;;;;5044943;28;20124;-61
2022/09/11 05:37:33;;;;;;;3.13;1.30;;;21.70;65.00;;;;;;5042416;28;20097;-61
2022/09/11 05:39:58;;;;;;;1.98;1.17;;;21.70;65.00;;;;;;5042639;28;20535;-61
2022/09/11 05:42:27;;;;;;;2.08;1.10;;;21.70;65.00;;;;;;5043865;28;20033;-61
2022/09/11 05:44:53;;;;;;;1.55;1.10;;;21.70;65.00;;;;;;5045664;28;20025;-61
2022/09/11 05:47:18;;;;;;;1.80;1.10;;;21.70;65.00;;;;;;5047697;28;20045;-61
2022/09/11 05:49:44;;;;;;;2.10;1.10;;;21.70;65.00;;;;;;5047601;28;20109;-62
2022/09/11 05:52:10;;;;;;;2.92;1.20;;;21.70;65.00;;;;;;5048729;28;20940;-61
2022/09/11 05:54:35;;;;;;;2.67;1.00;;;21.70;65.00;;;;;;5048610;28;20455;-61
2022/09/11 05:57:01;;;;;;;1.55;1.00;;;21.70;65.00;;;;;;5049300;28;20084;-61
2022/09/11 05:59:27;;;;;;;2.05;1.08;;;21.70;65.00;;;;;;5049631;28;20489;-61
2022/09/11 06:01:53;;;;;;;2.63;1.00;;;21.70;65.00;;;;;;5049063;28;20565;-61
2022/09/11 06:04:18;;;;;;;1.80;1.02;;;21.70;65.00;;;;;;5046742;28;20547;-61
2022/09/11 06:06:46;;;;;;;2.15;1.13;;;21.70;65.00;;;;;;5046983;28;20052;-61
2022/09/11 06:09:12;;;;;;;1.45;0.90;;;21.70;65.00;;;;;;5049702;28;20033;-61
2022/09/11 06:11:38;;;;;;;1.40;1.20;;;21.70;66.10;;;;;;5046436;28;20415;-61
2022/09/11 06:14:03;;;;;;;2.05;1.10;;;21.70;65.00;;;;;;5046631;28;20072;-61
2022/09/11 06:16:30;;;;;;;1.80;1.10;;;21.70;65.00;;;;;;5047567;28;20028;-61
2022/09/11 06:18:56;;;;;;;2.13;1.17;;;21.60;65.00;;;;;;5048988;28;20145;-61
2022/09/11 06:21:23;;;;;;;2.17;1.02;;;21.70;65.00;;;;;;5046756;28;20463;-61
2022/09/11 06:23:49;;;;;;;1.83;1.10;;;21.60;65.00;;;;;;5046318;28;20061;-62
2022/09/11 06:26:17;;;;;;;1.48;1.13;;;21.60;65.10;;;;;;5048698;28;20531;-62
2022/09/11 06:28:42;;;;;;;2.28;1.08;;;21.60;65.00;;;;;;5048123;28;20116;-62
2022/09/11 06:31:15;;;;;;;1.35;1.08;;;21.60;65.10;;;;;;5048752;28;20100;-61
2022/09/11 06:33:41;;;;;;;2.38;1.10;;;21.60;65.00;;;;;;5046050;28;20465;-61
2022/09/11 06:36:11;;;;;;;2.22;1.10;;;21.60;65.10;;;;;;5045802;28;20140;-61
2022/09/11 06:38:39;;;;;;;1.77;0.95;;;21.60;65.10;;;;;;5046991;28;20040;-61
2022/09/11 06:41:06;;;;;;;2.80;1.30;;;21.60;65.10;;;;;;5049318;28;20024;-62
2022/09/11 06:43:32;;;;;;;2.17;1.15;;;21.60;65.10;;;;;;5032276;28;20120;-62
2022/09/11 06:46:04;;;;;;;1.35;1.00;;;21.60;65.10;;;;;;5049171;28;20128;-62
2022/09/11 06:48:30;;;;;;;2.17;1.10;;;21.60;65.10;;;;;;5044578;28;20040;-61
2022/09/11 06:50:56;;;;;;;2.03;1.08;;;21.60;65.10;;;;;;5047407;28;20017;-61
2022/09/11 06:53:22;;;;;;;1.63;0.90;;;21.60;65.10;;;;;;5048271;28;20037;-61
2022/09/11 06:55:47;;;;;;;2.75;1.17;;;21.60;65.10;;;;;;5048385;28;20056;-61
2022/09/11 06:58:13;;;;;;;1.20;1.00;;;21.60;65.10;;;;;;5044040;28;20041;-62
2022/09/11 07:00:39;;;;;;;1.10;0.93;;;21.60;65.10;;;;;;5049430;28;20032;-61
2022/09/11 07:03:05;;;;;;;1.60;1.08;;;21.60;65.10;;;;;;5047411;28;20493;-61
2022/09/11 07:05:32;;;;;;;1.85;1.13;;;21.60;65.10;;;;;;5047631;28;20067;-61
2022/09/11 07:07:58;;;;;;;1.52;0.90;;;21.60;65.10;;;;;;5045366;28;20041;-61
2022/09/11 07:10:23;;;;;;;1.40;0.98;;;21.60;65.10;;;;;;5048648;28;20036;-61
2022/09/11 07:12:51;;;;;;;1.60;1.00;;;21.60;65.10;;;;;;5047041;28;20041;-62
2022/09/11 07:15:19;;;;;;;2.78;1.40;;;21.60;65.10;;;;;;5046541;28;20440;-61
2022/09/11 07:17:44;;;;;;;1.23;1.00;;;21.60;65.10;;;;;;5044497;28;20052;-61
2022/09/11 07:20:10;;;;;;;1.65;1.02;;;21.60;65.10;;;;;;5051607;28;20054;-61
2022/09/11 07:22:35;;;;;;;1.35;1.00;;;21.60;65.10;;;;;;5045935;28;20032;-61
2022/09/11 07:25:01;;;;;;;2.28;1.00;;;21.50;65.10;;;;;;5046470;28;20064;-61
2022/09/11 07:27:27;;;;;;;1.10;1.00;;;21.60;65.10;;;;;;5049802;28;20032;-61
2022/09/11 07:29:53;;;;;;;1.13;1.00;;;21.50;65.00;;;;;;5045630;28;20029;-61
2022/09/11 07:32:19;;;;;;;1.33;0.80;;;21.60;65.10;;;;;;5045745;28;20091;-61
2022/09/11 07:34:46;;;;;;;2.45;0.90;;;21.60;65.20;;;;;;5042732;28;20110;-61
2022/09/11 07:37:12;;;;;;;2.55;1.00;;;21.60;65.10;;;;;;5042503;28;20105;-62
2022/09/11 07:39:38;;;;;;;2.03;0.93;;;21.60;65.20;;;;;;5046510;28;20024;-61
2022/09/11 07:42:06;;;;;;;1.92;0.88;;;21.50;65.20;;;;;;5044807;28;20422;-61
2022/09/11 07:44:33;;;;;;;1.10;1.00;;;21.50;65.10;;;;;;5046691;28;20033;-61
2022/09/11 07:46:59;;;;;;;1.00;0.90;;;21.60;65.20;;;;;;5028739;28;20576;-61
2022/09/11 07:49:26;;;;;;;1.20;1.00;;;21.60;65.20;;;;;;5043792;28;20072;-61
2022/09/11 07:51:53;;;;;;;1.23;0.82;;;21.60;65.20;;;;;;5046579;28;20063;-61
2022/09/11 07:54:19;;;;;;;3.97;0.90;;;21.60;65.90;;;;;;5047983;28;20115;-62
2022/09/11 07:56:44;;;;;;;1.17;0.70;;;21.60;67.00;;;;;;5044210;28;20112;-62
2022/09/11 07:59:10;;;;;;;1.23;0.60;;;21.60;67.50;;;;;;5045696;28;20032;-62
2022/09/11 08:01:36;;;;;;;0.90;0.57;;;21.50;67.80;;;;;;5045315;28;20048;-61
2022/09/11 08:04:04;;;;;;;1.20;0.50;;;21.50;68.20;;;;;;5046894;28;20033;-62
2022/09/11 08:06:31;;;;;;;1.73;0.60;;;21.50;68.40;;;;;;5047463;28;20021;-61
2022/09/11 08:08:59;;;;;;;2.80;0.70;;;21.50;68.80;;;;;;5044423;28;20029;-61
2022/09/11 08:11:25;;;;;;;0.85;0.60;;;21.50;68.60;;;;;;5047109;28;20543;-62
2022/09/11 08:13:51;;;;;;;0.93;0.50;;;21.50;69.10;;;;;;5048509;28;20041;-62
2022/09/11 08:16:22;;;;;;;1.10;0.50;;;21.50;69.30;;;;;;5047209;28;20125;-62
2022/09/11 08:18:47;;;;;;;1.02;0.60;;;21.60;69.10;;;;;;5026690;28;20041;-61
2022/09/11 08:21:13;;;;;;;1.38;0.60;;;21.60;69.60;;;;;;5043763;28;20040;-62
2022/09/11 08:23:40;;;;;;;1.88;1.20;;;21.50;69.40;;;;;;5044998;28;20860;-61
2022/09/11 08:26:11;;;;;;;1.58;0.88;;;21.60;69.80;;;;;;5042577;28;20020;-62
2022/09/11 08:28:37;;;;;;;2.70;1.40;;;21.60;68.90;;;;;;5032432;28;20040;-61
2022/09/11 08:31:04;;;;;;;1.95;1.20;;;21.50;69.40;;;;;;5043190;28;20042;-61
2022/09/11 08:33:29;;;;;;;1.60;0.85;;;21.50;69.80;;;;;;5046509;28;20127;-61
2022/09/11 08:35:57;;;;;;;1.15;0.80;;;21.50;69.70;;;;;;5042424;28;20116;-61
2022/09/11 08:38:23;;;;;;;2.75;1.63;;;21.50;69.70;;;;;;5041417;28;20083;-62
2022/09/11 08:40:49;;;;;;;3.30;1.52;;;21.50;69.60;;;;;;5041078;28;20072;-61
2022/09/11 08:43:20;;;;;;;1.50;1.15;;;21.50;69.70;;;;;;5044968;28;20045;-61
2022/09/11 08:45:46;;;;;;;2.30;1.60;;;21.50;69.80;;;;;;5022112;28;20025;-61
2022/09/11 08:48:12;;;;;;;1.67;1.10;;;21.40;69.70;;;;;;5012342;28;20025;-61
2022/09/11 08:50:40;;;;;;;3.72;2.22;;;21.40;69.70;;;;;;5025881;28;20033;-62
2022/09/11 08:53:07;;;;;;;2.03;1.40;;;21.50;70.10;;;;;;5008857;28;20037;-61
2022/09/11 08:55:38;;;;;;;4.18;1.30;;;21.50;70.00;;;;;;5043775;28;20078;-61
2022/09/11 08:58:03;;;;;;;1.20;1.10;;;21.50;70.30;;;;;;5045088;28;20033;-62
2022/09/11 09:00:57;;;;;;;2.25;1.10;;;21.50;69.90;;;;;;5045369;28;20035;-61
2022/09/11 09:03:45;;;;;;;4.05;1.60;;;21.50;70.10;;;;;;5029508;28;20098;-61
2022/09/11 09:06:41;;;;;;;1.20;0.95;;;21.50;70.30;;;;;;5027017;28;20034;-61
2022/09/11 09:09:17;;;;;;;3.53;1.20;;;21.50;70.60;;;;;;5026714;28;20035;-61
2022/09/11 09:12:04;;;;;;;1.83;1.05;;;21.50;70.50;;;;;;5027717;28;20501;-62
2022/09/11 09:14:38;;;;;;;1.50;1.00;;;21.50;70.80;;;;;;5027439;28;20128;-61
2022/09/11 09:17:06;;;;;;;;;;;21.50;70.90;;;;;;5042294;28;20068;-61
2022/09/11 09:19:55;;;;;;;1.52;0.80;;;21.50;70.40;;;;;;5026623;28;19924;-61
2022/09/11 09:22:55;;;;;;;1.92;1.00;;;21.50;70.70;;;;;;5024782;28;20027;-61
2022/09/11 09:25:21;;;;;;;1.50;0.88;;;21.50;71.20;;;;;;4981244;28;20119;-61
2022/09/11 09:27:54;;;;;;;1.20;0.85;;;21.50;71.10;;;;;;4983137;28;20078;-62
2022/09/11 09:30:22;;;;;;;3.20;1.10;;;21.50;70.60;;;;;;4988225;28;20044;-61
2022/09/11 09:32:52;;;;;;;3.15;1.20;;;21.50;71.00;;;;;;4980432;28;20396;-61
2022/09/11 09:35:38;;;;;;;1.23;0.80;;;21.50;70.50;;;;;;4980514;28;20125;-61
2022/09/11 09:38:11;;;;;;;1.40;0.80;;;21.50;70.90;;;;;;4970603;28;20034;-61
2022/09/11 09:40:37;;;;;;;0.90;0.85;;;21.50;71.20;;;;;;4968321;28;20027;-61
2022/09/11 09:43:16;;;;;;;1.90;0.98;;;21.50;71.00;;;;;;4963350;28;20466;-61
2022/09/11 09:46:01;;;;;;;1.20;0.90;;;21.50;70.80;;;;;;4967469;28;20120;-61
2022/09/11 09:48:28;;;;;;;1.30;0.98;;;21.50;70.80;;;;;;4986965;28;20053;-61
2022/09/11 09:50:53;;;;;;;0.73;0.65;;;21.50;71.00;;;;;;4967324;28;20034;-61
2022/09/11 09:53:40;;;;;;;1.65;0.70;;;21.50;70.80;;;;;;4984728;28;20060;-61
2022/09/11 09:56:06;;;;;;;1.48;0.73;;;21.50;70.70;;;;;;4967606;28;20091;-61
2022/09/11 09:58:35;;;;;;;2.60;0.80;;;21.60;70.90;;;;;;4970193;28;20410;-61
2022/09/11 10:01:03;;;;;;;1.35;0.80;;;21.60;71.20;;;;;;4987220;28;20037;-61
2022/09/11 10:03:29;;;;;;;1.25;0.60;;;21.50;71.30;;;;;;5014129;28;20035;-61
2022/09/11 10:05:55;;;;;;;1.55;0.77;;;21.60;71.20;;;;;;5032088;28;20035;-61
2022/09/11 10:08:26;;;;;;;1.05;0.60;;;21.50;71.10;;;;;;5043971;28;20029;-61
2022/09/11 10:10:56;;;;;;;0.88;0.70;;;21.60;71.30;;;;;;5026195;28;20032;-61
2022/09/11 10:13:33;;;;;;;1.90;0.70;;;21.60;70.90;;;;;;5027804;28;20036;-62
2022/09/11 10:16:00;;;;;;;2.88;0.90;;;21.60;70.70;;;;;;5024380;28;20490;-61
2022/09/11 10:18:36;;;;;;;1.35;0.70;;;21.60;71.40;;;;;;5008845;28;20040;-61
2022/09/11 10:21:11;;;;;;;2.10;0.63;;;21.60;71.00;;;;;;5038997;28;20033;-61
2022/09/11 10:23:55;;;;;;;1.70;0.85;;;21.60;71.10;;;;;;5045591;28;20132;-62
2022/09/11 10:26:37;;;;;;;1.23;0.80;;;21.60;71.20;;;;;;5043281;28;20033;-61
2022/09/11 10:29:25;;;;;;;2.45;0.90;;;21.60;70.50;;;;;;5025552;28;20021;-61
2022/09/11 10:32:04;;;;;;;1.17;0.80;;;21.60;71.30;;;;;;5027317;28;20472;-61
2022/09/11 10:34:37;;;;;;;1.42;0.75;;;21.60;71.30;;;;;;5028169;28;20072;-61
2022/09/11 10:37:06;;;;;;;6.25;1.75;;;21.70;71.50;;;;;;5029926;28;20086;-61
2022/09/11 10:39:33;;;;;;;15.27;3.65;;;21.70;71.10;;;;;;5026873;28;20032;-61
2022/09/11 10:42:11;;;;;;;3.67;1.13;;;21.70;71.10;;;;;;5028326;28;20576;-61
2022/09/11 10:44:40;;;;;;;4.38;1.38;;;21.70;70.70;;;;;;5027118;28;20461;-61
2022/09/11 10:47:14;;;;;;;3.35;1.30;;;21.70;70.80;;;;;;5027687;28;20567;-61
2022/09/11 10:49:39;;;;;;;3.80;1.30;;;21.70;70.80;;;;;;5026821;28;22702;-61
2022/09/11 10:52:08;;;;;;;5.05;1.10;;;21.80;70.80;;;;;;5044716;28;20028;-61
2022/09/11 10:54:39;;;;;;;3.13;0.98;;;21.80;70.30;;;;;;5047828;28;20493;-61
2022/09/11 10:57:18;;;;;;;4.25;1.00;;;21.80;70.80;;;;;;5026404;28;20028;-61
2022/09/11 10:59:58;;;;;;;3.17;1.00;;;21.80;70.90;;;;;;5027391;28;20052;-61
2022/09/11 11:02:32;;;;;;;2.38;1.10;;;21.90;70.80;;;;;;5045843;28;20040;-61
2022/09/11 11:05:02;;;;;;;3.58;1.20;;;21.90;70.30;;;;;;5028455;28;20489;-61
2022/09/11 11:07:49;;;;;;;3.97;1.67;;;21.90;70.30;;;;;;5047273;28;20025;-61
2022/09/11 11:10:39;;;;;;;9.30;2.63;;;22.00;70.10;;;;;;5029572;28;20017;-61
2022/09/11 11:13:28;;;;;;;5.13;1.48;;;22.00;69.90;;;;;;5029491;28;20548;-62
2022/09/11 11:16:09;;;;;;;7.85;2.17;;;22.10;69.60;;;;;;5032138;28;20025;-61
2022/09/11 11:18:53;;;;;;;4.22;1.35;;;22.10;69.50;;;;;;5029016;28;20033;-61
2022/09/11 11:21:37;;;;;;;4.13;1.48;;;22.10;69.50;;;;;;5044063;28;20037;-61
2022/09/11 11:24:25;;;;;;;4.35;1.20;;;22.20;69.50;;;;;;5023878;28;20032;-62
2022/09/11 11:27:15;;;;;;;5.03;1.60;;;22.10;69.10;;;;;;5027456;28;20113;-62
2022/09/11 11:29:49;;;;;;;3.70;1.40;;;22.20;69.70;;;;;;5046073;28;20131;-62
2022/09/11 11:32:39;;;;;;;3.45;1.23;;;22.30;69.20;;;;;;5028388;28;20036;-62
2022/09/11 11:35:32;;;;;;;3.65;1.48;;;22.30;68.90;;;;;;5044625;28;20055;-62
2022/09/11 11:38:23;;;;;;;5.07;1.30;;;22.40;69.10;;;;;;5027177;28;20026;-62
2022/09/11 11:40:58;;;;;;;4.15;1.10;;;22.50;68.80;;;;;;5048360;28;20029;-63
2022/09/11 11:43:26;;;;;;;3.50;1.20;;;22.50;68.60;;;;;;5027588;28;20021;-61
2022/09/11 11:46:01;;;;;;;4.03;1.20;;;22.50;68.80;;;;;;5006295;28;20119;-62
2022/09/11 11:48:45;;;;;;;;;;;22.50;69.60;;;;;;5024848;28;20706;-63
2022/09/11 11:51:17;;;;;;;5.00;1.23;;;22.60;68.80;;;;;;5028340;28;19916;-60
2022/09/11 11:53:54;;;;;;;4.65;1.30;;;22.50;68.50;;;;;;5033035;28;20509;-62
2022/09/11 11:56:48;;;;;;;5.13;1.17;;;22.60;68.30;;;;;;5030697;28;20029;-60
2022/09/11 11:59:30;;;;;;;2.75;1.30;;;22.60;68.40;;;;;;5042787;28;20036;-62
2022/09/11 12:02:08;;;;;;;3.30;1.05;;;22.70;68.40;;;;;;5025874;28;20025;-60
2022/09/11 12:04:51;;;;;;;3.78;1.10;;;22.80;68.30;;;;;;5034538;28;20048;-62
2022/09/11 12:07:21;;;;;;;1.30;0.80;;;22.80;68.10;;;;;;5014656;28;20033;-63
2022/09/11 12:09:48;;;;;;;2.33;1.20;;;22.90;68.10;;;;;;5018366;28;20021;-60
2022/09/11 12:12:15;;;;;;;4.28;1.20;;;22.90;67.80;;;;;;5016351;28;20017;-60
2022/09/11 12:14:50;;;;;;;2.08;1.00;;;23.00;68.10;;;;;;5006263;28;20044;-62
2022/09/11 12:17:24;;;;;;;4.82;1.17;;;23.10;67.90;;;;;;5013268;28;20065;-63
2022/09/11 12:20:13;;;;;;;3.28;1.13;;;23.10;67.60;;;;;;5017265;28;20057;-57
2022/09/11 12:22:47;;;;;;;2.63;1.00;;;23.10;67.80;;;;;;5034356;28;20035;-61
2022/09/11 12:25:22;;;;;;;1.77;0.98;;;23.20;67.50;;;;;;5022637;28;20568;-59
2022/09/11 12:27:49;;;;;;;2.60;1.10;;;23.20;67.70;;;;;;5045508;28;20108;-61
2022/09/11 12:30:15;;;;;;;3.58;1.00;;;23.10;67.60;;;;;;5045425;28;20111;-59
2022/09/11 12:32:50;;;;;;;2.97;1.10;;;23.20;67.70;;;;;;5044697;28;20132;-60
2022/09/11 12:35:19;;;;;;;;;;;23.30;67.80;;;;;;5027097;28;20697;-59
2022/09/11 12:38:02;;;;;;;3.42;1.00;;;23.20;67.70;;;;;;5029707;28;19908;-59
2022/09/11 12:40:49;;;;;;;2.90;0.90;;;23.30;67.80;;;;;;5033020;28;20039;-60
2022/09/11 12:43:29;;;;;;;3.05;0.93;;;23.30;67.60;;;;;;5037297;28;20049;-59
2022/09/11 12:45:55;;;;;;;2.97;1.20;;;23.20;67.60;;;;;;5027993;28;20082;-60
2022/09/11 12:48:37;;;;;;;5.25;1.17;;;23.20;67.60;;;;;;5045828;28;20037;-62
2022/09/11 12:51:04;;;;;;;4.38;1.10;;;23.30;67.40;;;;;;5029278;28;20032;-60
2022/09/11 12:53:34;;;;;;;1.70;1.00;;;23.30;67.40;;;;;;5027637;28;20483;-62
2022/09/11 12:56:03;;;;;;;3.53;1.05;;;23.30;67.20;;;;;;5025231;28;20021;-59
2022/09/11 12:58:39;;;;;;;2.38;0.90;;;23.30;67.30;;;;;;5023066;28;20056;-61
2022/09/11 13:01:17;;;;;;;3.80;1.05;;;23.40;67.30;;;;;;5045108;28;20513;-58
2022/09/11 13:04:10;;;;;;;3.42;1.00;;;23.50;66.90;;;;;;5048634;28;20040;-60
2022/09/11 13:06:44;;;;;;;5.07;1.20;;;23.50;66.90;;;;;;5011560;28;20060;-60